21°C Temp
16°C Dewpoint
% Humidity
Temperature
24 KM/H
15 MPH
13 KTS
260°
Due West

Wind Speed
Partly Cloudy
Conditions
Pressure 1009.92 (hPa) - 29.82 (in)
Visibility 6.2 (mi) - 10.0 (km)

Current Conditions
EDDL
Location Düsseldorf International (12km)
Metar :EDDL 151320Z 26013KT 230V290 9999 FEW020 21/16 Q1010 NOSIG
Thu 15th August 14:20 pm

Airport
  Metar Aviation API Data Provided by https://www.checkwx.com/ PHP scripts by weather34.com ©2019